Time;durP1;ratioP1;P1;durP2;ratioP2;P2;SDS_P1;SDS_P2;PMS_P1;PMS_P2;Temp;Humidity;BMP_temperature;BMP_pressure;BME280_temperature;BME280_humidity;BME280_pressure;Samples;Min_cycle;Max_cycle;Signal;HPM_P1;HPM_P2
2022/06/30 00:02:10;;;;;;;0.00;0.00;;;18.20;99.90;;;;;;4996086;28;20050;-75
2022/06/30 00:04:36;;;;;;;0.00;0.00;;;18.30;99.90;;;;;;4978605;28;20022;-75
2022/06/30 00:07:02;;;;;;;0.10;0.10;;;18.40;99.90;;;;;;4995861;28;20034;-75
2022/06/30 00:09:28;;;;;;;0.20;0.20;;;18.40;99.90;;;;;;4994368;28;20394;-75
2022/06/30 00:11:54;;;;;;;0.00;0.00;;;18.60;99.90;;;;;;4995818;28;20022;-75
2022/06/30 00:14:20;;;;;;;0.05;0.05;;;18.60;99.90;;;;;;4994552;28;20493;-75
2022/06/30 00:16:45;;;;;;;0.10;0.10;;;18.60;99.90;;;;;;4994572;28;20398;-75
2022/06/30 00:19:11;;;;;;;0.30;0.30;;;18.60;99.90;;;;;;4995390;28;20026;-75
2022/06/30 00:21:37;;;;;;;0.08;0.08;;;18.60;99.90;;;;;;4994512;28;20181;-74
2022/06/30 00:24:03;;;;;;;0.10;0.10;;;18.60;99.90;;;;;;4994116;28;20026;-74
2022/06/30 00:26:29;;;;;;;0.52;0.52;;;18.60;99.90;;;;;;4995601;28;20038;-74
2022/06/30 00:28:55;;;;;;;0.10;0.10;;;18.40;99.90;;;;;;4993955;28;20474;-74
2022/06/30 00:31:20;;;;;;;0.10;0.10;;;18.30;99.90;;;;;;4995653;28;20490;-75
2022/06/30 00:33:46;;;;;;;0.65;0.35;;;18.10;99.90;;;;;;4977999;28;20022;-75
2022/06/30 00:36:12;;;;;;;2.10;0.80;;;18.00;99.90;;;;;;4995453;28;20035;-74
2022/06/30 00:38:38;;;;;;;2.10;1.45;;;17.90;99.90;;;;;;4994340;28;20530;-75
2022/06/30 00:41:04;;;;;;;0.00;0.00;;;18.00;99.90;;;;;;4993950;28;20113;-75
2022/06/30 00:43:30;;;;;;;0.20;0.20;;;18.10;99.90;;;;;;4995269;28;20076;-75
2022/06/30 00:45:56;;;;;;;0.10;0.10;;;18.10;99.90;;;;;;4993842;28;20042;-75
2022/06/30 00:48:22;;;;;;;0.10;0.10;;;18.20;99.90;;;;;;4994006;28;20030;-75
2022/06/30 00:50:47;;;;;;;0.10;0.10;;;18.30;99.90;;;;;;4993325;28;20044;-75
2022/06/30 00:53:17;;;;;;;0.20;0.20;;;18.20;99.90;;;;;;4995116;28;20467;-75
2022/06/30 00:55:46;;;;;;;0.10;0.10;;;18.10;99.90;;;;;;4995075;28;20026;-75
2022/06/30 00:58:15;;;;;;;2.38;0.68;;;18.10;99.90;;;;;;4993687;28;20081;-75
2022/06/30 01:00:41;;;;;;;0.63;0.63;;;18.10;99.90;;;;;;4994652;28;20022;-75
2022/06/30 01:03:10;;;;;;;0.13;0.13;;;18.10;99.90;;;;;;4993517;28;20031;-75
2022/06/30 01:05:37;;;;;;;0.13;0.13;;;18.10;99.90;;;;;;4994732;28;20106;-75
2022/06/30 01:08:04;;;;;;;0.10;0.10;;;18.20;99.90;;;;;;4993533;28;20034;-75
2022/06/30 01:13:14;;;;;;;0.32;0.32;;;18.30;99.90;;;;;;4994763;28;20496;-75
2022/06/30 01:15:40;;;;;;;0.30;0.30;;;18.20;99.90;;;;;;4994625;28;20094;-75
2022/06/30 01:18:06;;;;;;;0.05;0.05;;;17.80;99.90;;;;;;4993349;28;20125;-75
2022/06/30 01:20:33;;;;;;;0.25;0.25;;;17.80;99.90;;;;;;4994465;28;20065;-75
2022/06/30 01:23:01;;;;;;;0.30;0.30;;;17.90;99.90;;;;;;4993273;28;20084;-75
2022/06/30 01:25:27;;;;;;;0.10;0.10;;;17.90;99.90;;;;;;4993111;28;20394;-75
2022/06/30 01:27:54;;;;;;;0.10;0.10;;;17.90;99.90;;;;;;4994421;28;20363;-75
2022/06/30 01:30:21;;;;;;;0.15;0.15;;;17.80;99.90;;;;;;4992995;28;20026;-75
2022/06/30 01:32:47;;;;;;;0.10;0.10;;;17.80;99.90;;;;;;4994689;28;20022;-75
2022/06/30 01:35:13;;;;;;;0.85;0.52;;;17.90;99.90;;;;;;4994503;28;20033;-75
2022/06/30 01:37:58;;;;;;;0.10;0.10;;;18.00;99.90;;;;;;4993099;28;20113;-75
2022/06/30 01:40:27;;;;;;;0.10;0.10;;;17.80;99.90;;;;;;4993957;28;20418;-74
2022/06/30 01:42:53;;;;;;;0.57;0.30;;;17.60;99.90;;;;;;4976643;28;20037;-75
2022/06/30 01:45:20;;;;;;;0.08;0.08;;;17.40;99.90;;;;;;4993002;28;20393;-75
2022/06/30 01:47:46;;;;;;;0.70;0.70;;;17.40;99.90;;;;;;4992635;28;20128;-75
2022/06/30 01:50:18;;;;;;;0.10;0.10;;;17.50;99.90;;;;;;4992193;28;20097;-74
2022/06/30 01:52:45;;;;;;;0.10;0.10;;;17.60;99.90;;;;;;4994021;28;20448;-74
2022/06/30 01:55:11;;;;;;;0.25;0.15;;;17.60;99.90;;;;;;4992722;28;20022;-74
2022/06/30 01:57:37;;;;;;;0.20;0.20;;;17.80;99.90;;;;;;4993936;28;20034;-74
2022/06/30 02:00:05;;;;;;;0.10;0.10;;;17.80;99.90;;;;;;4993581;28;20034;-74
2022/06/30 02:02:31;;;;;;;0.95;0.65;;;17.70;99.90;;;;;;4993816;28;20027;-74
2022/06/30 02:04:56;;;;;;;0.73;0.73;;;17.60;99.90;;;;;;4993834;28;20041;-74
2022/06/30 02:07:23;;;;;;;0.40;0.40;;;17.50;99.90;;;;;;4993526;28;20080;-74
2022/06/30 02:09:53;;;;;;;0.20;0.20;;;17.50;99.90;;;;;;4992446;28;20084;-75
2022/06/30 02:15:05;;;;;;;0.10;0.10;;;17.40;99.90;;;;;;4993807;28;20015;-74
2022/06/30 02:17:31;;;;;;;2.47;0.82;;;17.30;99.90;;;;;;4993497;28;20030;-74
2022/06/30 02:19:57;;;;;;;0.35;0.35;;;17.30;99.90;;;;;;4993172;28;20045;-74
2022/06/30 02:22:23;;;;;;;1.08;0.82;;;17.20;99.90;;;;;;4993446;28;20037;-74
2022/06/30 02:24:48;;;;;;;0.20;0.20;;;17.10;99.90;;;;;;4993389;28;20044;-74
2022/06/30 02:27:14;;;;;;;0.15;0.15;;;17.10;99.90;;;;;;4993461;28;20018;-74
2022/06/30 02:29:40;;;;;;;0.10;0.10;;;17.20;99.90;;;;;;4993109;28;20037;-74
2022/06/30 02:32:06;;;;;;;0.00;0.00;;;17.20;99.90;;;;;;4992043;28;20608;-74
2022/06/30 02:34:32;;;;;;;0.10;0.10;;;17.30;99.90;;;;;;4993265;28;20022;-74
2022/06/30 02:36:58;;;;;;;0.47;0.47;;;17.40;99.90;;;;;;4991790;28;20031;-74
2022/06/30 02:39:24;;;;;;;0.00;0.00;;;17.50;99.90;;;;;;4992927;28;20029;-74
2022/06/30 02:41:50;;;;;;;0.15;0.15;;;17.50;99.90;;;;;;4993121;28;20101;-74
2022/06/30 02:44:15;;;;;;;0.25;0.25;;;17.50;99.90;;;;;;4993026;28;20030;-74
2022/06/30 02:46:41;;;;;;;0.10;0.10;;;17.40;99.90;;;;;;4991685;28;20153;-74
2022/06/30 02:49:07;;;;;;;0.13;0.13;;;17.30;99.90;;;;;;4992293;28;20069;-74
2022/06/30 02:51:33;;;;;;;0.10;0.10;;;17.40;99.90;;;;;;4992887;28;20026;-74
2022/06/30 02:53:58;;;;;;;0.32;0.32;;;17.40;99.90;;;;;;4991593;28;20034;-74
2022/06/30 02:56:24;;;;;;;0.10;0.10;;;17.50;99.90;;;;;;4991720;28;20521;-74
2022/06/30 02:58:50;;;;;;;0.10;0.10;;;17.50;99.90;;;;;;4992759;28;20027;-74
2022/06/30 03:01:16;;;;;;;0.10;0.10;;;17.50;99.90;;;;;;4991128;28;20037;-74
2022/06/30 03:03:42;;;;;;;0.25;0.25;;;17.50;99.90;;;;;;4991514;28;20038;-74
2022/06/30 03:06:08;;;;;;;0.15;0.15;;;17.40;99.90;;;;;;4992634;28;20027;-74
2022/06/30 03:08:33;;;;;;;0.10;0.10;;;17.60;99.90;;;;;;4991472;28;20157;-74
2022/06/30 03:10:59;;;;;;;0.05;0.05;;;17.60;99.90;;;;;;4991343;28;20027;-74
2022/06/30 03:13:25;;;;;;;0.00;0.00;;;17.80;99.90;;;;;;4992752;28;20124;-74
2022/06/30 03:15:51;;;;;;;0.10;0.10;;;17.60;99.90;;;;;;4992686;28;20030;-74
2022/06/30 03:18:17;;;;;;;0.45;0.45;;;17.50;99.90;;;;;;4992619;28;20035;-74
2022/06/30 03:20:43;;;;;;;2.72;0.80;;;17.30;99.90;;;;;;4991059;28;20030;-74
2022/06/30 03:23:09;;;;;;;5.43;0.73;;;17.10;99.90;;;;;;4992637;28;20054;-74
2022/06/30 03:25:34;;;;;;;0.47;0.40;;;16.90;99.90;;;;;;5085273;23;20049;-75
2022/06/30 03:28:02;;;;;;;1.83;1.73;;;16.80;99.90;;;;;;4991171;28;20030;-73
2022/06/30 03:30:28;;;;;;;0.10;0.10;;;16.80;99.90;;;;;;4992447;28;20062;-76
2022/06/30 03:32:53;;;;;;;0.10;0.10;;;16.80;99.90;;;;;;4992447;28;20027;-76
2022/06/30 03:35:19;;;;;;;0.10;0.10;;;16.90;99.90;;;;;;4992323;28;20031;-76
2022/06/30 03:37:46;;;;;;;0.20;0.20;;;17.10;99.90;;;;;;4992373;28;20038;-74
2022/06/30 03:40:12;;;;;;;0.20;0.20;;;17.10;99.90;;;;;;4992230;28;20037;-76
2022/06/30 03:42:38;;;;;;;0.68;0.68;;;17.10;99.90;;;;;;4992409;28;20166;-76
2022/06/30 03:45:05;;;;;;;0.70;0.70;;;17.00;99.90;;;;;;4992245;28;20030;-76
2022/06/30 03:47:31;;;;;;;0.55;0.47;;;17.00;99.90;;;;;;4992480;28;20029;-76
2022/06/30 03:49:56;;;;;;;1.40;0.93;;;16.90;99.90;;;;;;4991782;28;20035;-76
2022/06/30 03:52:22;;;;;;;0.85;0.85;;;16.80;99.90;;;;;;4992341;28;20027;-76
2022/06/30 03:54:48;;;;;;;0.40;0.38;;;16.90;99.90;;;;;;4992779;28;20478;-75
2022/06/30 03:57:14;;;;;;;0.65;0.65;;;17.00;99.90;;;;;;4992162;28;20026;-75
2022/06/30 03:59:39;;;;;;;0.20;0.20;;;16.80;99.90;;;;;;4992059;28;20023;-76
2022/06/30 04:02:06;;;;;;;0.25;0.25;;;16.80;99.90;;;;;;4974838;28;20030;-76
2022/06/30 04:04:32;;;;;;;2.45;1.23;;;16.90;99.90;;;;;;4992151;28;20022;-75
2022/06/30 04:06:58;;;;;;;0.10;0.10;;;16.80;99.90;;;;;;4992082;28;20057;-75
2022/06/30 04:09:24;;;;;;;17.77;2.58;;;16.80;99.90;;;;;;4991907;28;20022;-76
2022/06/30 04:11:50;;;;;;;0.38;0.38;;;16.80;99.90;;;;;;4992156;28;20069;-76
2022/06/30 04:14:15;;;;;;;1.90;1.65;;;16.90;99.90;;;;;;4994275;28;20022;-75
2022/06/30 04:16:41;;;;;;;0.77;0.77;;;16.90;99.90;;;;;;4995782;28;20396;-76
2022/06/30 04:19:07;;;;;;;1.33;0.55;;;16.80;99.90;;;;;;4995353;28;20026;-77
2022/06/30 04:21:32;;;;;;;0.47;0.47;;;16.90;99.90;;;;;;4995693;28;20033;-75
2022/06/30 04:23:58;;;;;;;0.30;0.30;;;16.90;99.90;;;;;;4995483;28;20054;-76
2022/06/30 04:26:24;;;;;;;0.10;0.10;;;17.00;99.90;;;;;;4995435;28;20101;-76
2022/06/30 04:28:50;;;;;;;0.10;0.10;;;17.10;99.90;;;;;;4995392;28;20033;-76
2022/06/30 04:33:59;;;;;;;0.20;0.20;;;17.50;99.90;;;;;;4995420;28;20054;-75
2022/06/30 04:36:25;;;;;;;1.25;0.57;;;17.60;99.90;;;;;;4995393;28;20104;-76
2022/06/30 04:38:51;;;;;;;0.10;0.10;;;17.50;99.90;;;;;;4994949;28;20037;-77
2022/06/30 04:41:25;;;;;;;0.10;0.10;;;17.40;99.90;;;;;;4995185;28;20027;-76
2022/06/30 04:43:56;;;;;;;0.00;0.00;;;17.50;99.90;;;;;;4995248;28;20116;-76
2022/06/30 04:46:22;;;;;;;0.00;0.00;;;17.70;99.90;;;;;;4995167;28;20249;-76
2022/06/30 04:48:49;;;;;;;0.10;0.10;;;17.70;99.90;;;;;;4994989;28;20134;-76
2022/06/30 04:51:15;;;;;;;0.08;0.08;;;17.90;99.90;;;;;;4995055;28;20030;-76
2022/06/30 04:53:41;;;;;;;0.10;0.10;;;18.10;99.90;;;;;;4993848;28;20027;-76
2022/06/30 04:56:08;;;;;;;0.00;0.00;;;18.30;99.90;;;;;;4995042;28;20030;-76
2022/06/30 04:58:33;;;;;;;0.10;0.10;;;18.40;99.90;;;;;;4995030;28;20029;-76
2022/06/30 05:01:00;;;;;;;0.20;0.20;;;18.50;99.90;;;;;;4993584;28;20022;-76
2022/06/30 05:03:26;;;;;;;0.10;0.10;;;18.70;99.90;;;;;;4994671;28;20026;-77
2022/06/30 05:05:53;;;;;;;0.00;0.00;;;18.70;99.90;;;;;;4994864;28;20095;-76
2022/06/30 05:08:20;;;;;;;0.10;0.10;;;18.90;99.90;;;;;;4994821;28;20018;-76
2022/06/30 05:10:46;;;;;;;0.43;0.35;;;19.00;99.90;;;;;;4994642;28;20023;-76
2022/06/30 05:13:12;;;;;;;0.13;0.13;;;19.00;99.90;;;;;;4994746;28;20024;-76
2022/06/30 05:15:37;;;;;;;1.42;1.40;;;18.80;99.90;;;;;;4994598;28;20104;-76
2022/06/30 05:18:03;;;;;;;0.10;0.10;;;18.70;99.90;;;;;;4994711;28;20429;-76
2022/06/30 05:20:30;;;;;;;0.28;0.28;;;18.80;99.90;;;;;;4993037;28;20057;-76
2022/06/30 05:22:55;;;;;;;0.10;0.10;;;18.90;99.90;;;;;;4994552;28;20026;-76
2022/06/30 05:28:07;;;;;;;0.00;0.00;;;18.90;99.90;;;;;;4994425;28;20030;-76
2022/06/30 05:30:33;;;;;;;13.35;6.80;;;19.00;99.90;;;;;;4994014;28;20033;-76
2022/06/30 05:32:59;;;;;;;0.10;0.10;;;19.10;99.90;;;;;;4990963;28;20022;-76
2022/06/30 05:35:24;;;;;;;0.00;0.00;;;19.20;99.90;;;;;;4976944;28;20034;-76
2022/06/30 05:37:50;;;;;;;0.03;0.03;;;19.30;99.90;;;;;;4976832;28;20135;-76
2022/06/30 05:40:16;;;;;;;0.00;0.00;;;19.50;99.90;;;;;;4987140;28;20074;-76
2022/06/30 05:42:42;;;;;;;0.00;0.00;;;19.70;99.90;;;;;;4974521;28;20029;-76
2022/06/30 05:45:08;;;;;;;0.10;0.10;;;19.80;99.90;;;;;;4974669;28;20025;-76
2022/06/30 05:47:42;;;;;;;0.10;0.10;;;19.90;99.90;;;;;;4974437;28;20118;-76
2022/06/30 05:50:08;;;;;;;0.00;0.00;;;20.10;99.90;;;;;;4974308;28;20463;-76
2022/06/30 05:52:34;;;;;;;0.00;0.00;;;20.20;99.90;;;;;;4993832;28;20028;-76
2022/06/30 05:55:00;;;;;;;0.10;0.10;;;20.30;99.90;;;;;;4993916;28;20565;-77
2022/06/30 05:57:26;;;;;;;0.08;0.08;;;20.40;99.90;;;;;;4993810;28;20046;-76
2022/06/30 05:59:51;;;;;;;0.00;0.00;;;20.50;99.90;;;;;;4993543;28;20077;-76
2022/06/30 06:02:17;;;;;;;0.00;0.00;;;20.60;99.90;;;;;;4993736;28;20393;-76
2022/06/30 06:04:43;;;;;;;0.00;0.00;;;20.60;99.90;;;;;;4991518;28;20061;-76
2022/06/30 06:07:09;;;;;;;0.00;0.00;;;20.70;99.90;;;;;;4990138;28;20022;-76
2022/06/30 06:09:34;;;;;;;0.00;0.00;;;20.70;99.90;;;;;;4983905;28;20039;-76
2022/06/30 06:12:00;;;;;;;1.13;1.02;;;20.90;99.90;;;;;;4972634;28;20479;-76
2022/06/30 06:14:26;;;;;;;0.20;0.20;;;21.10;99.90;;;;;;4972682;28;20033;-76
2022/06/30 06:16:51;;;;;;;0.00;0.00;;;21.20;99.90;;;;;;4972592;28;20026;-76
2022/06/30 06:19:17;;;;;;;0.00;0.00;;;21.20;99.90;;;;;;4973778;28;20061;-75
2022/06/30 06:21:43;;;;;;;0.10;0.10;;;21.30;99.90;;;;;;4974075;28;20030;-76
2022/06/30 06:24:08;;;;;;;0.00;0.00;;;21.40;99.90;;;;;;4973872;28;20023;-76
2022/06/30 06:26:34;;;;;;;0.00;0.00;;;21.60;99.90;;;;;;4972692;28;20101;-76
2022/06/30 06:29:05;;;;;;;0.00;0.00;;;21.70;99.90;;;;;;4973564;28;20390;-77
2022/06/30 06:31:33;;;;;;;0.00;0.00;;;21.80;99.90;;;;;;4986613;28;20460;-76
2022/06/30 06:33:59;;;;;;;0.10;0.10;;;22.00;99.90;;;;;;4975877;28;20027;-76
2022/06/30 06:36:26;;;;;;;0.00;0.00;;;22.20;99.90;;;;;;4992506;28;20033;-76
2022/06/30 06:38:52;;;;;;;0.00;0.00;;;22.30;99.90;;;;;;4987648;28;20018;-76
2022/06/30 06:41:20;;;;;;;0.10;0.10;;;22.40;99.90;;;;;;4973557;28;20045;-76
2022/06/30 06:43:50;;;;;;;0.10;0.10;;;22.60;99.90;;;;;;4973746;28;20033;-77
2022/06/30 06:46:17;;;;;;;0.25;0.25;;;22.70;99.90;;;;;;4973454;28;20038;-76
2022/06/30 06:48:43;;;;;;;0.20;0.20;;;22.80;99.90;;;;;;4988380;28;20022;-76
2022/06/30 06:51:09;;;;;;;0.60;0.60;;;22.90;99.90;;;;;;4988489;28;20019;-76
2022/06/30 06:53:36;;;;;;;0.00;0.00;;;22.80;99.90;;;;;;4992840;28;20102;-76
2022/06/30 06:56:03;;;;;;;0.30;0.30;;;22.80;99.90;;;;;;4990880;28;20041;-76
2022/06/30 06:58:29;;;;;;;0.20;0.20;;;23.00;99.90;;;;;;4990696;28;20022;-76
2022/06/30 07:00:55;;;;;;;0.00;0.00;;;23.00;99.90;;;;;;4991323;28;20566;-77
2022/06/30 07:03:22;;;;;;;0.15;0.15;;;23.00;99.90;;;;;;4992360;28;20062;-77
2022/06/30 07:05:48;;;;;;;0.00;0.00;;;23.10;99.90;;;;;;4991797;28;20030;-77
2022/06/30 07:08:13;;;;;;;0.43;0.43;;;23.30;99.90;;;;;;4993149;28;20435;-77
2022/06/30 07:10:39;;;;;;;0.00;0.00;;;23.40;99.90;;;;;;4974251;28;20025;-77
2022/06/30 07:13:05;;;;;;;0.13;0.13;;;23.60;99.90;;;;;;4990022;28;20105;-77
2022/06/30 07:15:31;;;;;;;0.00;0.00;;;23.70;99.90;;;;;;4976185;28;20050;-77
2022/06/30 07:17:56;;;;;;;25.13;21.85;;;23.70;99.90;;;;;;4958665;28;20037;-77
2022/06/30 07:20:22;;;;;;;0.10;0.10;;;23.90;99.90;;;;;;4983447;28;20023;-77
2022/06/30 07:22:48;;;;;;;0.30;0.30;;;23.90;99.90;;;;;;4991831;28;20624;-76
2022/06/30 07:25:14;;;;;;;0.03;0.03;;;24.10;99.90;;;;;;4991466;28;20042;-77
2022/06/30 07:27:40;;;;;;;1.33;1.23;;;24.20;99.90;;;;;;4976556;28;20106;-77
2022/06/30 07:30:06;;;;;;;0.00;0.00;;;24.30;99.90;;;;;;4980468;28;20067;-77
2022/06/30 07:32:32;;;;;;;0.00;0.00;;;24.50;99.90;;;;;;4989967;28;20393;-76
2022/06/30 07:34:58;;;;;;;0.90;0.32;;;24.40;99.90;;;;;;4991242;28;20029;-77
2022/06/30 07:37:24;;;;;;;0.57;0.57;;;24.40;99.90;;;;;;4968552;28;20033;-77
2022/06/30 07:39:49;;;;;;;0.08;0.08;;;24.40;99.90;;;;;;4975332;28;20045;-77
2022/06/30 07:42:15;;;;;;;0.15;0.15;;;24.30;99.90;;;;;;4989031;28;20030;-77
2022/06/30 07:44:43;;;;;;;0.00;0.00;;;24.40;99.90;;;;;;4972798;28;20026;-77
2022/06/30 07:47:10;;;;;;;0.10;0.10;;;24.60;99.90;;;;;;4972401;28;20398;-77
2022/06/30 07:49:38;;;;;;;0.45;0.45;;;24.80;99.90;;;;;;4976166;28;20030;-77
2022/06/30 07:52:04;;;;;;;0.00;0.00;;;24.80;99.90;;;;;;4994924;28;20623;-77
2022/06/30 07:54:32;;;;;;;0.32;0.32;;;24.90;99.90;;;;;;4997124;28;20026;-77
2022/06/30 07:56:57;;;;;;;0.00;0.00;;;24.90;99.90;;;;;;4995446;28;20030;-77
2022/06/30 07:59:23;;;;;;;5.28;1.90;;;25.10;99.90;;;;;;4979421;28;20026;-77
2022/06/30 08:01:49;;;;;;;0.00;0.00;;;25.20;99.90;;;;;;4996746;28;20490;-77
2022/06/30 08:04:17;;;;;;;0.43;0.17;;;25.40;99.90;;;;;;4997400;28;20031;-77
2022/06/30 08:06:43;;;;;;;0.15;0.15;;;25.60;99.30;;;;;;4995976;28;20026;-77
2022/06/30 08:09:09;;;;;;;0.15;0.15;;;25.70;99.10;;;;;;4995528;28;20026;-77
2022/06/30 08:11:35;;;;;;;0.05;0.03;;;25.90;96.50;;;;;;4978773;28;20045;-77
2022/06/30 08:14:00;;;;;;;0.00;0.00;;;25.90;94.50;;;;;;4988877;28;20027;-76
2022/06/30 08:16:26;;;;;;;0.47;0.10;;;25.90;95.40;;;;;;4979072;28;20038;-77
2022/06/30 08:18:52;;;;;;;0.10;0.10;;;26.00;95.10;;;;;;4977984;28;20023;-77
2022/06/30 08:21:18;;;;;;;0.00;0.00;;;26.10;95.90;;;;;;4975651;28;20027;-78
2022/06/30 08:23:44;;;;;;;3.03;0.43;;;26.20;95.80;;;;;;4979189;28;20117;-77
2022/06/30 08:26:09;;;;;;;0.00;0.00;;;26.30;95.00;;;;;;4996352;28;20037;-77
2022/06/30 08:28:35;;;;;;;0.00;0.00;;;26.40;95.70;;;;;;4996455;28;20447;-77
2022/06/30 08:31:01;;;;;;;7.63;1.83;;;26.60;94.90;;;;;;4995212;28;20025;-77
2022/06/30 08:33:27;;;;;;;13.52;0.38;;;26.60;94.70;;;;;;4991455;28;20034;-78
2022/06/30 08:35:53;;;;;;;0.15;0.15;;;26.70;94.70;;;;;;4978894;28;20146;-78
2022/06/30 08:38:19;;;;;;;0.43;0.38;;;26.90;93.70;;;;;;4995914;28;20030;-78
2022/06/30 08:43:33;;;;;;;0.20;0.20;;;26.90;93.10;;;;;;4976964;28;20046;-77
2022/06/30 08:46:00;;;;;;;0.00;0.00;;;27.10;93.20;;;;;;4975827;28;20027;-77
2022/06/30 08:48:26;;;;;;;0.00;0.00;;;27.20;94.40;;;;;;4991289;28;20018;-77
2022/06/30 08:50:59;;;;;;;0.10;0.10;;;27.50;93.00;;;;;;4994800;28;20029;-77
2022/06/30 08:53:30;;;;;;;2.20;0.60;;;27.60;92.50;;;;;;4980016;28;20023;-77
2022/06/30 08:55:56;;;;;;;0.00;0.00;;;27.70;92.20;;;;;;4979043;28;20031;-78
2022/06/30 08:58:23;;;;;;;3.42;1.48;;;27.90;92.40;;;;;;4995399;28;20053;-77
2022/06/30 09:00:52;;;;;;;0.57;0.50;;;28.00;91.40;;;;;;4994500;28;20545;-78
2022/06/30 09:03:18;;;;;;;0.15;0.15;;;28.20;91.20;;;;;;4991198;28;20015;-77
2022/06/30 09:05:46;;;;;;;0.57;0.30;;;28.10;91.50;;;;;;4968491;28;20031;-77
2022/06/30 09:08:12;;;;;;;0.10;0.10;;;28.20;88.80;;;;;;4990927;28;20050;-77
2022/06/30 09:10:53;;;;;;;0.50;0.20;;;28.20;88.90;;;;;;4987933;28;20027;-78
2022/06/30 09:13:19;;;;;;;0.00;0.00;;;28.00;90.70;;;;;;4984303;28;20102;-78
2022/06/30 09:15:47;;;;;;;0.65;0.63;;;28.00;89.10;;;;;;4996279;28;20126;-77
2022/06/30 09:18:27;;;;;;;0.35;0.20;;;27.70;90.10;;;;;;4991169;28;20015;-77
2022/06/30 09:20:54;;;;;;;2.80;1.15;;;27.80;90.70;;;;;;4983239;28;20026;-77
2022/06/30 09:23:24;;;;;;;1.20;0.38;;;28.10;88.20;;;;;;4977061;28;20027;-77
2022/06/30 09:25:53;;;;;;;0.40;0.30;;;28.40;88.10;;;;;;4991859;23;1078313;-95
2022/06/30 09:28:43;;;;;;;0.40;0.15;;;28.50;86.40;;;;;;5015914;28;20038;-94
2022/06/30 09:31:15;;;;;;;0.43;0.10;;;28.70;85.60;;;;;;4977938;28;20049;-94
2022/06/30 09:33:47;;;;;;;0.10;0.10;;;29.00;84.40;;;;;;5013589;28;20033;-94
2022/06/30 09:36:32;;;;;;;0.35;0.35;;;29.20;81.40;;;;;;4999264;28;20010;-94
2022/06/30 09:39:05;;;;;;;0.10;0.10;;;28.90;80.80;;;;;;4997051;28;20094;-94
2022/06/30 09:41:35;;;;;;;1.45;0.40;;;28.90;81.30;;;;;;4998386;28;20050;-94
2022/06/30 09:44:01;;;;;;;0.30;0.30;;;29.00;79.70;;;;;;5013679;28;20026;-94
2022/06/30 09:46:27;;;;;;;7.78;1.15;;;29.20;79.60;;;;;;5011324;28;20086;-94
2022/06/30 09:48:53;;;;;;;0.45;0.45;;;29.10;78.10;;;;;;5016641;28;20040;-96
2022/06/30 09:51:31;;;;;;;0.00;0.00;;;29.30;78.70;;;;;;5002367;28;20046;-96
2022/06/30 09:54:09;;;;;;;0.28;0.25;;;29.50;78.20;;;;;;4996336;28;20026;-94
2022/06/30 09:56:35;;;;;;;0.70;0.43;;;29.50;77.50;;;;;;5015407;28;20086;-95
2022/06/30 09:59:07;;;;;;;0.10;0.10;;;29.60;76.50;;;;;;5011141;28;20030;-95
2022/06/30 10:01:53;;;;;;;0.10;0.10;;;29.80;75.20;;;;;;5012388;28;20030;-95
2022/06/30 10:04:22;;;;;;;1.30;0.40;;;29.80;76.50;;;;;;5016171;28;20478;-95
2022/06/30 10:06:54;;;;;;;1.13;0.32;;;30.00;75.40;;;;;;4998677;28;20026;-95
2022/06/30 10:09:20;;;;;;;0.50;0.40;;;30.10;74.30;;;;;;4999207;28;20021;-95
2022/06/30 10:11:47;;;;;;;0.00;0.00;;;30.20;71.50;;;;;;5002128;28;20077;-94
2022/06/30 10:14:16;;;;;;;0.43;0.22;;;30.50;70.40;;;;;;5017148;28;20042;-94
2022/06/30 10:16:45;;;;;;;0.10;0.10;;;30.70;70.30;;;;;;5015211;28;20023;-94
2022/06/30 10:19:14;;;;;;;0.00;0.00;;;30.80;67.80;;;;;;5013498;28;20077;-94
2022/06/30 10:21:41;;;;;;;0.20;0.20;;;30.80;69.40;;;;;;5012508;28;20057;-94
2022/06/30 10:24:10;;;;;;;0.20;0.20;;;30.70;67.90;;;;;;5012221;28;20029;-95
2022/06/30 10:29:23;;;;;;;2.60;0.47;;;30.50;68.80;;;;;;5012655;28;20034;-94
2022/06/30 10:32:21;;;;;;;0.00;0.00;;;30.80;67.90;;;;;;5011318;28;20045;-95
2022/06/30 10:34:56;;;;;;;0.00;0.00;;;30.70;66.20;;;;;;5013341;28;20037;-95
2022/06/30 10:37:37;;;;;;;7.78;2.47;;;30.80;66.60;;;;;;4996819;28;20102;-94
2022/06/30 10:40:15;;;;;;;0.90;0.40;;;30.70;66.30;;;;;;4997017;28;20030;-94
2022/06/30 10:42:56;;;;;;;0.17;0.17;;;30.50;66.20;;;;;;5007825;28;20014;-95
2022/06/30 10:45:30;;;;;;;0.20;0.20;;;30.50;66.60;;;;;;5011054;28;20026;-95
2022/06/30 10:48:10;;;;;;;0.35;0.30;;;30.70;66.90;;;;;;4996315;28;20066;-95
2022/06/30 10:50:49;;;;;;;0.05;0.05;;;30.90;66.00;;;;;;4995646;28;20033;-95
2022/06/30 10:53:37;;;;;;;0.40;0.40;;;31.20;66.40;;;;;;5009737;28;20034;-95
2022/06/30 10:56:03;;;;;;;0.20;0.20;;;31.20;64.40;;;;;;4992963;28;20023;-94
2022/06/30 10:58:29;;;;;;;0.10;0.10;;;30.90;66.80;;;;;;5011359;28;20085;-94
2022/06/30 11:01:00;;;;;;;4.47;0.40;;;31.10;66.50;;;;;;4993994;28;20050;-95
2022/06/30 11:03:34;;;;;;;3.20;1.15;;;31.30;66.60;;;;;;5010253;28;20029;-94
2022/06/30 11:06:07;;;;;;;0.40;0.40;;;31.10;65.40;;;;;;4993351;28;20022;-94
2022/06/30 11:08:48;;;;;;;0.82;0.43;;;30.80;67.00;;;;;;4995131;28;20077;-94
2022/06/30 11:11:28;;;;;;;;;;;31.20;64.70;;;;;;4997514;28;20090;-94
2022/06/30 11:14:03;;;;;;;0.00;0.00;;;31.10;66.10;;;;;;4993849;28;19906;-95
2022/06/30 11:16:54;;;;;;;0.00;0.00;;;31.30;67.40;;;;;;4994216;28;20030;-94
2022/06/30 11:19:43;;;;;;;0.47;0.40;;;31.40;68.20;;;;;;5014076;28;20070;-94
2022/06/30 11:22:27;;;;;;;12.15;0.32;;;31.40;65.80;;;;;;5015490;28;20084;-94
2022/06/30 11:27:17;;;;;;;1.70;1.17;;;31.20;66.80;;;;;;5015030;28;20018;-96
2022/06/30 11:28:10;;;;;;;0.00;0.00;;;31.10;67.10;;;;;;5033831;28;20487;-95
2022/06/30 11:30:48;;;;;;;0.20;0.20;;;31.30;67.40;;;;;;5005144;28;20105;-95
2022/06/30 11:33:24;;;;;;;0.98;0.32;;;31.30;66.00;;;;;;5018773;28;20127;-94
2022/06/30 11:36:11;;;;;;;0.50;0.50;;;31.20;66.40;;;;;;5017931;28;20015;-94
2022/06/30 11:38:37;;;;;;;0.28;0.10;;;31.10;65.20;;;;;;5004014;28;20066;-94
2022/06/30 11:41:54;;;;;;;0.00;0.00;;;31.40;66.20;;;;;;5018963;28;20041;-95
2022/06/30 11:43:55;;;;;;;3.10;2.10;;;31.20;65.30;;;;;;5010868;28;20096;-95
2022/06/30 11:46:26;;;;;;;0.00;0.00;;;31.10;63.80;;;;;;5002791;28;20018;-94
2022/06/30 11:48:54;;;;;;;13.77;0.28;;;31.10;63.30;;;;;;4998885;28;20042;-95
2022/06/30 11:51:41;;;;;;;1.17;1.08;;;31.40;63.10;;;;;;5016961;28;20034;-95
2022/06/30 11:54:08;;;;;;;0.10;0.05;;;31.10;64.30;;;;;;5001100;28;20026;-95
2022/06/30 11:56:53;;;;;;;0.00;0.00;;;30.90;65.50;;;;;;5003219;28;20026;-94
2022/06/30 11:59:19;;;;;;;0.00;0.00;;;30.70;65.30;;;;;;5002218;28;20054;-95
2022/06/30 12:02:07;;;;;;;0.05;0.05;;;30.80;64.20;;;;;;4994686;28;20042;-93
2022/06/30 12:04:38;;;;;;;0.00;0.00;;;31.00;63.80;;;;;;4984847;28;20034;-93
2022/06/30 12:07:08;;;;;;;1.35;1.10;;;31.10;65.20;;;;;;4985547;28;20037;-93
2022/06/30 12:09:37;;;;;;;0.75;0.32;;;31.00;65.20;;;;;;4982721;28;20025;-93
2022/06/30 12:12:08;;;;;;;0.08;0.08;;;30.60;66.00;;;;;;4990536;28;20233;-94
2022/06/30 12:14:40;;;;;;;0.05;0.05;;;30.30;65.70;;;;;;4994975;28;20125;-94
2022/06/30 12:17:11;;;;;;;3.00;2.05;;;30.40;66.00;;;;;;4980894;28;20033;-93
2022/06/30 12:19:42;;;;;;;0.05;0.05;;;30.60;63.90;;;;;;4973485;28;20035;-93
2022/06/30 12:22:10;;;;;;;0.22;0.10;;;30.70;64.40;;;;;;4973847;28;20031;-94
2022/06/30 12:24:39;;;;;;;0.20;0.20;;;30.60;66.00;;;;;;4982173;28;20030;-94
2022/06/30 12:27:08;;;;;;;0.60;0.60;;;30.20;65.30;;;;;;4991353;28;20093;-93
2022/06/30 12:29:34;;;;;;;2.53;1.52;;;30.20;65.10;;;;;;4990693;28;20022;-94
2022/06/30 12:32:13;;;;;;;1.27;0.75;;;30.00;66.70;;;;;;4992165;28;20022;-94
2022/06/30 12:34:51;;;;;;;7.25;1.58;;;29.80;66.50;;;;;;4989287;28;20117;-93
2022/06/30 12:37:29;;;;;;;3.05;0.90;;;29.70;67.50;;;;;;4992196;28;20026;-94
2022/06/30 12:40:13;;;;;;;1.00;0.50;;;29.70;67.20;;;;;;4992306;28;20090;-93
2022/06/30 12:42:51;;;;;;;0.52;0.40;;;29.60;66.90;;;;;;4988623;28;20105;-93
2022/06/30 12:45:36;;;;;;;0.90;0.90;;;29.60;68.10;;;;;;4989980;28;20443;-93
2022/06/30 12:48:06;;;;;;;1.48;1.20;;;29.60;67.80;;;;;;4991146;28;20042;-93
2022/06/30 12:50:44;;;;;;;0.00;0.00;;;29.70;65.50;;;;;;4988948;28;20019;-93
2022/06/30 12:53:28;;;;;;;0.00;0.00;;;29.90;65.40;;;;;;4988825;28;20034;-93
2022/06/30 12:56:11;;;;;;;0.08;0.08;;;29.80;66.90;;;;;;4990619;28;20058;-93
2022/06/30 12:58:50;;;;;;;0.10;0.10;;;29.80;67.80;;;;;;4989394;28;20022;-93
2022/06/30 13:01:29;;;;;;;0.80;0.80;;;29.70;67.80;;;;;;4989168;28;20025;-93
2022/06/30 13:04:01;;;;;;;0.10;0.10;;;29.60;70.10;;;;;;4989415;28;20023;-92
2022/06/30 13:06:34;;;;;;;0.20;0.20;;;29.50;70.00;;;;;;4987682;28;20041;-93
2022/06/30 13:09:14;;;;;;;0.63;0.63;;;29.40;69.70;;;;;;4995579;28;20042;-93
2022/06/30 13:11:59;;;;;;;1.10;0.20;;;29.30;71.20;;;;;;4995380;28;20054;-92
2022/06/30 13:16:57;;;;;;;0.45;0.32;;;29.40;71.40;;;;;;5001402;23;20057;-72